Time;durP1;ratioP1;P1;durP2;ratioP2;P2;SDS_P1;SDS_P2;PMS_P1;PMS_P2;Temp;Humidity;BMP_temperature;BMP_pressure;BME280_temperature;BME280_humidity;BME280_pressure;Samples;Min_cycle;Max_cycle;Signal;HPM_P1;HPM_P2
2022/10/02 00:01:18;;;;;;;5.03;2.65;;;;;;;16.29;100.00;92921.63;5131705;27;20043;-73
2022/10/02 00:03:46;;;;;;;5.60;1.90;;;;;;;16.15;100.00;92922.09;5064047;28;20496;-73
2022/10/02 00:06:21;;;;;;;3.92;1.55;;;;;;;16.07;100.00;92921.78;5090637;28;20341;-73
2022/10/02 00:08:50;;;;;;;4.30;2.05;;;;;;;15.92;100.00;92920.63;5063079;28;20512;-73
2022/10/02 00:11:22;;;;;;;7.72;3.25;;;;;;;15.87;100.00;92915.41;5090590;28;20462;-73
2022/10/02 00:13:51;;;;;;;6.90;4.25;;;;;;;15.93;100.00;92930.00;5090210;28;20541;-73
2022/10/02 00:16:26;;;;;;;7.75;3.35;;;;;;;15.90;100.00;92930.47;5090395;28;20101;-73
2022/10/02 00:18:55;;;;;;;6.00;3.30;;;;;;;15.88;100.00;92929.94;5088938;28;20044;-73
2022/10/02 00:21:37;;;;;;;4.97;2.13;;;;;;;15.88;100.00;92938.47;5077726;28;20284;-73
2022/10/02 00:24:05;;;;;;;6.47;2.28;;;;;;;15.86;100.00;92944.94;5090028;28;20047;-73
2022/10/02 00:26:38;;;;;;;5.38;2.38;;;;;;;15.88;100.00;92942.88;5090586;28;20105;-73
2022/10/02 00:29:18;;;;;;;6.13;2.08;;;;;;;15.77;100.00;92940.22;5090759;28;20052;-73
2022/10/02 00:31:55;;;;;;;6.32;2.22;;;;;;;15.92;100.00;92953.53;5090290;28;20055;-73
2022/10/02 00:34:36;;;;;;;5.65;2.95;;;;;;;15.92;100.00;92949.09;5089820;28;20048;-73
2022/10/02 00:37:12;;;;;;;6.35;2.47;;;;;;;15.78;100.00;92948.75;5090185;28;20052;-73
2022/10/02 00:39:54;;;;;;;4.18;2.20;;;;;;;15.67;100.00;92955.69;5089940;28;20039;-73
2022/10/02 00:42:54;;;;;;;5.05;2.10;;;;;;;15.54;100.00;92956.06;5090095;28;20040;-73
2022/10/02 00:45:44;;;;;;;7.03;3.00;;;;;;;15.37;100.00;92954.41;5090059;28;20050;-73
2022/10/02 00:48:27;;;;;;;5.35;2.40;;;;;;;15.20;100.00;92950.13;5089940;28;20105;-73
2022/10/02 00:51:05;;;;;;;6.47;2.60;;;;;;;15.35;100.00;92954.66;5089522;28;20106;-73
2022/10/02 00:53:44;;;;;;;4.45;2.33;;;;;;;15.27;100.00;92952.50;5062820;28;20048;-73
2022/10/02 00:56:23;;;;;;;4.05;3.03;;;;;;;15.29;100.00;92950.44;5089499;28;20040;-73
2022/10/02 00:59:13;;;;;;;3.92;2.17;;;;;;;15.38;100.00;92953.38;5089497;28;20044;-73
2022/10/02 01:01:47;;;;;;;3.65;2.63;;;;;;;15.41;100.00;92955.47;5096746;27;20072;-73
2022/10/02 01:04:20;;;;;;;4.85;3.40;;;;;;;15.28;100.00;92961.81;5130482;27;20075;-73
2022/10/02 01:06:47;;;;;;;5.45;2.22;;;;;;;15.30;100.00;92953.81;5130343;27;20047;-73
2022/10/02 01:09:15;;;;;;;4.05;2.20;;;;;;;15.27;100.00;92962.84;5130153;27;20043;-73
2022/10/02 01:11:43;;;;;;;3.45;2.30;;;;;;;15.33;100.00;92958.50;5130090;27;20047;-73
2022/10/02 01:14:10;;;;;;;5.32;2.80;;;;;;;15.41;100.00;92962.47;5130461;27;20139;-73
2022/10/02 01:16:40;;;;;;;6.25;2.75;;;;;;;15.45;100.00;92966.88;5130179;27;20047;-73
2022/10/02 01:19:21;;;;;;;3.83;2.65;;;;;;;15.20;100.00;92931.22;5126615;27;20050;-73
2022/10/02 01:21:53;;;;;;;3.50;1.90;;;;;;;15.31;100.00;92976.84;5121279;27;20046;-73
2022/10/02 01:24:28;;;;;;;4.30;2.70;;;;;;;15.40;100.00;92977.19;5129863;27;20039;-73
2022/10/02 01:26:56;;;;;;;5.33;2.20;;;;;;;15.44;100.00;92965.34;5130189;27;20388;-73
2022/10/02 01:29:23;;;;;;;4.28;2.63;;;;;;;15.44;100.00;92967.91;5130207;28;20039;-73
2022/10/02 01:31:50;;;;;;;3.97;2.40;;;;;;;15.09;100.00;92980.25;5129969;28;20050;-73
2022/10/02 01:34:17;;;;;;;3.78;2.10;;;;;;;14.92;100.00;92992.50;5130034;28;20097;-73
2022/10/02 01:36:44;;;;;;;7.05;2.40;;;;;;;14.75;100.00;92998.50;5130273;28;20046;-73
2022/10/02 01:39:11;;;;;;;5.68;2.25;;;;;;;14.77;100.00;92993.88;5130159;28;20047;-73
2022/10/02 01:41:42;;;;;;;3.13;2.00;;;;;;;14.86;100.00;92990.88;5132338;27;20126;-73
2022/10/02 01:44:11;;;;;;;3.13;2.35;;;;;;;14.74;100.00;92986.59;5134195;27;20088;-73
2022/10/02 01:46:47;;;;;;;3.33;2.10;;;;;;;14.71;100.00;92994.81;5134366;27;20088;-73
2022/10/02 01:49:46;;;;;;;4.30;2.53;;;;;;;14.67;100.00;92999.69;5134498;27;20531;-73
2022/10/02 01:52:22;;;;;;;3.22;1.70;;;;;;;14.40;100.00;93005.53;5134291;27;20472;-73
2022/10/02 01:54:55;;;;;;;;;;;;;;;14.52;100.00;93007.25;5134273;27;20096;-73
2022/10/02 01:57:32;;;;;;;4.50;2.05;;;;;;;14.40;100.00;93017.69;5133971;27;19919;-73
2022/10/02 02:00:07;;;;;;;5.70;2.22;;;;;;;14.34;100.00;93010.91;5133943;27;20043;-73
2022/10/02 02:02:48;;;;;;;3.17;1.95;;;;;;;14.38;100.00;93019.72;5133841;27;20065;-73
2022/10/02 02:05:26;;;;;;;3.25;1.90;;;;;;;14.46;100.00;93021.91;5133929;27;20054;-73
2022/10/02 02:08:05;;;;;;;2.22;1.67;;;;;;;14.42;100.00;93025.97;5133930;27;20051;-73
2022/10/02 02:10:43;;;;;;;2.65;1.75;;;;;;;14.39;100.00;93023.84;5120153;27;20399;-73
2022/10/02 02:13:16;;;;;;;5.00;2.10;;;;;;;14.35;100.00;93027.97;5133766;27;20051;-73
2022/10/02 02:15:52;;;;;;;2.53;1.75;;;;;;;14.38;100.00;93035.22;5133512;27;20514;-73
2022/10/02 02:18:24;;;;;;;4.13;1.80;;;;;;;14.15;100.00;93049.88;5133346;27;20085;-73
2022/10/02 02:20:53;;;;;;;2.47;1.67;;;;;;;14.25;100.00;93049.25;5118914;27;20039;-73
2022/10/02 02:23:25;;;;;;;2.92;1.67;;;;;;;14.23;100.00;93053.88;5133347;27;20093;-73
2022/10/02 02:25:58;;;;;;;3.28;2.10;;;;;;;14.23;100.00;93059.84;5133560;27;20096;-73
2022/10/02 02:28:27;;;;;;;4.18;2.03;;;;;;;14.28;100.00;93053.94;5133818;27;20039;-73
2022/10/02 02:30:57;;;;;;;3.95;2.53;;;;;;;14.29;100.00;93056.31;5132977;27;20563;-73
2022/10/02 02:33:30;;;;;;;13.95;9.15;;;;;;;14.33;100.00;93054.03;5133187;27;20091;-73
2022/10/02 02:36:01;;;;;;;4.30;2.60;;;;;;;14.29;100.00;93064.06;5133099;27;20047;-73
2022/10/02 02:38:32;;;;;;;3.50;2.22;;;;;;;14.20;100.00;93049.97;5133102;27;20039;-73
2022/10/02 02:41:04;;;;;;;8.45;5.45;;;;;;;14.36;100.00;93060.53;5133080;27;20043;-73
2022/10/02 02:43:35;;;;;;;28.27;17.77;;;;;;;14.39;100.00;93060.81;5132919;27;20091;-73
2022/10/02 02:46:08;;;;;;;13.43;9.32;;;;;;;14.34;100.00;93053.00;5133240;27;20047;-73
2022/10/02 02:48:39;;;;;;;11.60;6.72;;;;;;;14.32;100.00;93069.75;5132848;27;20111;-72
2022/10/02 02:51:13;;;;;;;9.50;5.20;;;;;;;14.28;100.00;93074.63;5132969;27;20104;-71
2022/10/02 02:53:44;;;;;;;5.13;2.72;;;;;;;14.21;100.00;93090.28;5131650;27;20095;-73
2022/10/02 02:56:15;;;;;;;7.63;2.75;;;;;;;13.93;100.00;93085.97;5132744;27;20043;-73
2022/10/02 02:58:48;;;;;;;3.75;1.92;;;;;;;13.64;100.00;93097.09;5133014;27;20055;-73
2022/10/02 03:01:16;;;;;;;3.55;1.90;;;;;;;13.61;100.00;93095.75;5132173;27;20563;-73
2022/10/02 03:03:43;;;;;;;2.63;1.70;;;;;;;13.49;100.00;93100.19;5133172;27;20042;-73
2022/10/02 03:06:26;;;;;;;2.85;1.65;;;;;;;13.56;100.00;93094.88;5132438;27;20092;-73
2022/10/02 03:08:54;;;;;;;2.88;2.03;;;;;;;13.46;100.00;93114.31;5132432;27;20044;-72
2022/10/02 03:11:33;;;;;;;2.38;1.83;;;;;;;13.33;100.00;93112.75;5132772;27;20047;-72
2022/10/02 03:14:11;;;;;;;2.88;2.00;;;;;;;13.23;100.00;93118.50;5132817;27;20424;-73
2022/10/02 03:16:48;;;;;;;3.35;1.95;;;;;;;13.08;100.00;93121.56;5132289;27;20491;-72
2022/10/02 03:19:26;;;;;;;2.72;1.88;;;;;;;13.05;100.00;93129.75;5127939;27;20093;-72
2022/10/02 03:22:04;;;;;;;5.68;3.00;;;;;;;13.16;100.00;93132.53;5124427;27;20043;-72
2022/10/02 03:24:38;;;;;;;3.80;2.20;;;;;;;13.16;100.00;93132.53;5132583;27;20039;-72
2022/10/02 03:27:10;;;;;;;4.82;2.53;;;;;;;13.00;100.00;93141.75;5132446;27;20042;-72
2022/10/02 03:29:44;;;;;;;4.03;2.60;;;;;;;12.93;100.00;93139.31;5132067;27;20385;-72
2022/10/02 03:32:16;;;;;;;4.35;3.00;;;;;;;12.83;100.00;93135.47;5132327;27;20039;-72
2022/10/02 03:34:43;;;;;;;4.68;3.50;;;;;;;12.79;100.00;93138.75;5132200;27;20051;-72
2022/10/02 03:37:10;;;;;;;7.50;3.85;;;;;;;12.80;100.00;93145.47;5132413;27;20088;-72
2022/10/02 03:39:40;;;;;;;4.60;3.67;;;;;;;12.82;100.00;93133.91;5131804;27;20039;-72
2022/10/02 03:42:10;;;;;;;5.07;3.72;;;;;;;12.90;100.00;93137.16;5131952;27;20566;-72
2022/10/02 03:44:36;;;;;;;4.20;3.75;;;;;;;12.88;100.00;93149.50;5131775;27;20092;-72
2022/10/02 03:47:03;;;;;;;5.97;4.20;;;;;;;12.95;100.00;93148.38;5097990;27;20499;-72
2022/10/02 03:49:31;;;;;;;5.28;4.78;;;;;;;12.93;100.00;93145.25;5131088;27;20047;-72
2022/10/02 03:51:58;;;;;;;5.00;4.40;;;;;;;13.04;100.00;93150.59;5103167;27;20468;-72
2022/10/02 03:54:27;;;;;;;4.35;3.70;;;;;;;13.02;100.00;93150.03;5103754;27;20096;-72
2022/10/02 03:56:56;;;;;;;5.80;4.07;;;;;;;13.04;100.00;93150.59;5090227;28;20428;-72
2022/10/02 03:59:33;;;;;;;5.95;4.90;;;;;;;13.02;100.00;93153.41;5106420;27;20430;-72
2022/10/02 04:02:06;;;;;;;6.85;5.82;;;;;;;13.05;100.00;93145.22;5093532;27;20044;-72
2022/10/02 04:04:43;;;;;;;8.23;6.57;;;;;;;13.18;100.00;93148.56;5130963;27;20043;-72
2022/10/02 04:07:16;;;;;;;5.90;5.30;;;;;;;13.22;100.00;93149.69;5090281;28;20040;-72
2022/10/02 04:09:50;;;;;;;7.13;5.30;;;;;;;13.24;100.00;93155.38;5090051;28;20044;-72
2022/10/02 04:12:23;;;;;;;20.70;12.65;;;;;;;13.22;100.00;93150.47;5090101;28;20040;-72
2022/10/02 04:14:55;;;;;;;7.53;6.15;;;;;;;13.18;100.00;93164.03;5112215;27;20043;-72
2022/10/02 04:17:26;;;;;;;8.98;7.22;;;;;;;13.15;100.00;93165.28;5092955;28;20044;-72
2022/10/02 04:19:57;;;;;;;9.80;7.82;;;;;;;13.18;100.00;93179.50;5100066;28;20093;-72
2022/10/02 04:22:32;;;;;;;5.25;4.63;;;;;;;13.15;100.00;93175.59;5090636;28;20101;-72
2022/10/02 04:25:05;;;;;;;5.28;4.78;;;;;;;13.18;100.00;93187.25;5110594;27;20039;-72
2022/10/02 04:27:36;;;;;;;5.38;4.88;;;;;;;13.28;100.00;93189.28;5089363;28;20046;-72
2022/10/02 04:30:06;;;;;;;7.25;5.88;;;;;;;13.36;100.00;93188.91;5097438;27;20559;-72
2022/10/02 04:32:35;;;;;;;9.82;5.07;;;;;;;13.30;100.00;93174.34;5120190;27;20039;-72
2022/10/02 04:35:09;;;;;;;8.88;7.35;;;;;;;13.52;100.00;93197.00;5130045;27;20043;-72
2022/10/02 04:37:51;;;;;;;6.28;5.63;;;;;;;13.54;100.00;93207.88;5117332;27;20047;-72
2022/10/02 04:40:30;;;;;;;5.55;5.05;;;;;;;13.36;100.00;93214.72;5115786;27;20047;-72
2022/10/02 04:43:11;;;;;;;5.50;4.55;;;;;;;13.35;100.00;93208.00;5130833;27;20039;-72
2022/10/02 04:45:52;;;;;;;5.85;5.00;;;;;;;13.39;100.00;93219.44;5130461;27;20051;-72
2022/10/02 04:48:48;;;;;;;5.75;4.88;;;;;;;13.23;100.00;93231.19;5114052;27;20056;-72
2022/10/02 04:51:32;;;;;;;5.38;4.57;;;;;;;13.18;100.00;93213.84;5130699;27;20095;-72
2022/10/02 04:54:19;;;;;;;5.38;3.80;;;;;;;13.24;100.00;93235.34;5116618;27;20047;-72
2022/10/02 04:57:03;;;;;;;4.72;3.97;;;;;;;12.98;100.00;93211.59;5130376;27;20039;-72
2022/10/02 04:59:50;;;;;;;5.70;3.22;;;;;;;13.10;100.00;93253.63;5130202;27;20092;-72
2022/10/02 05:02:32;;;;;;;4.13;3.10;;;;;;;13.18;100.00;93264.63;5130206;27;20087;-72
2022/10/02 05:05:11;;;;;;;4.07;3.67;;;;;;;13.28;100.00;93259.69;5126190;27;20043;-72
2022/10/02 05:07:53;;;;;;;5.70;2.88;;;;;;;13.19;100.00;93272.13;5130367;27;20039;-72
2022/10/02 05:10:40;;;;;;;4.43;3.05;;;;;;;13.18;100.00;93267.19;5130151;27;20050;-72
2022/10/02 05:13:23;;;;;;;3.22;2.60;;;;;;;13.18;100.00;93274.94;5130613;27;20455;-72
2022/10/02 05:16:12;;;;;;;3.22;2.92;;;;;;;13.15;100.00;93278.75;5129162;27;20047;-72
2022/10/02 05:18:57;;;;;;;3.92;2.70;;;;;;;12.96;100.00;93281.44;5130520;27;20047;-72
2022/10/02 05:21:45;;;;;;;8.45;5.50;;;;;;;13.16;100.00;93275.19;5105600;27;20039;-72
2022/10/02 05:24:42;;;;;;;26.98;15.05;;;;;;;13.13;100.00;93290.28;5125904;27;20437;-72
2022/10/02 05:27:26;;;;;;;4.07;3.00;;;;;;;13.25;100.00;93288.53;5130107;27;20047;-72
2022/10/02 05:30:06;;;;;;;6.88;4.63;;;;;;;13.27;100.00;93296.03;5129829;27;20051;-72
2022/10/02 05:32:57;;;;;;;8.10;5.50;;;;;;;13.47;100.00;93280.25;5130102;28;20051;-72
2022/10/02 05:35:39;;;;;;;8.13;7.05;;;;;;;13.44;100.00;93291.00;5129990;28;20130;-72
2022/10/02 05:38:17;;;;;;;5.78;4.28;;;;;;;13.33;100.00;93269.34;5126570;28;20047;-72
2022/10/02 05:40:56;;;;;;;5.00;3.85;;;;;;;13.60;100.00;93300.66;5129880;28;20100;-72
2022/10/02 05:43:29;;;;;;;3.28;2.85;;;;;;;13.41;100.00;93317.22;5130115;28;20087;-72
2022/10/02 05:46:03;;;;;;;4.10;3.67;;;;;;;13.48;100.00;93303.22;5129965;28;20096;-72
2022/10/02 05:48:41;;;;;;;6.55;3.25;;;;;;;13.34;100.00;93284.59;5129713;28;20047;-72
2022/10/02 05:51:15;;;;;;;4.63;3.40;;;;;;;13.49;100.00;93301.44;5105271;28;20094;-72
2022/10/02 05:53:48;;;;;;;4.32;3.50;;;;;;;13.61;100.00;93324.69;5121991;28;20116;-71
2022/10/02 05:56:22;;;;;;;4.65;3.53;;;;;;;13.59;100.00;93322.31;5129717;28;20051;-71
2022/10/02 05:58:53;;;;;;;4.28;3.35;;;;;;;13.71;100.00;93321.53;5129516;28;20125;-72
2022/10/02 06:01:25;;;;;;;3.42;3.13;;;;;;;13.75;100.00;93322.66;5129608;28;20388;-72
2022/10/02 06:04:02;;;;;;;4.10;3.70;;;;;;;13.80;100.00;93321.97;5129682;28;20043;-71
2022/10/02 06:06:37;;;;;;;4.40;3.58;;;;;;;13.84;100.00;93329.03;5129949;28;20050;-72
2022/10/02 06:09:11;;;;;;;5.40;3.95;;;;;;;13.38;100.00;93344.25;5129332;28;20053;-72
2022/10/02 06:11:46;;;;;;;4.38;3.75;;;;;;;13.31;100.00;93348.75;5088353;28;20044;-71
2022/10/02 06:14:20;;;;;;;51.65;38.70;;;;;;;13.32;100.00;93348.53;5088487;28;20928;-71
2022/10/02 06:16:54;;;;;;;5.65;4.00;;;;;;;13.27;100.00;93365.66;5089889;28;20052;-71
2022/10/02 06:19:25;;;;;;;5.22;4.22;;;;;;;13.34;100.00;93363.78;5094058;28;20075;-71
2022/10/02 06:21:56;;;;;;;4.47;4.07;;;;;;;13.22;100.00;93345.72;5121430;28;20047;-71
2022/10/02 06:24:28;;;;;;;3.67;3.38;;;;;;;13.48;100.00;93372.13;5127881;28;20092;-72
2022/10/02 06:27:02;;;;;;;3.83;3.45;;;;;;;13.49;100.00;93381.44;5130728;27;20043;-72
2022/10/02 06:29:36;;;;;;;5.70;3.90;;;;;;;13.52;100.00;93386.16;5133216;27;20050;-71
2022/10/02 06:32:18;;;;;;;4.53;3.60;;;;;;;13.45;100.00;93386.25;5133629;27;20103;-71
2022/10/02 06:34:45;;;;;;;5.30;3.67;;;;;;;13.54;100.00;93381.56;5133026;27;20051;-71
2022/10/02 06:37:28;;;;;;;5.82;4.28;;;;;;;13.75;100.00;93385.38;5132135;27;20047;-69
2022/10/02 06:40:12;;;;;;;3.40;3.10;;;;;;;13.76;100.00;93404.25;5105021;27;20047;-71
2022/10/02 06:42:51;;;;;;;5.53;4.15;;;;;;;13.98;100.00;93380.44;5133108;27;20047;-71
2022/10/02 06:45:28;;;;;;;4.85;3.63;;;;;;;14.07;100.00;93402.31;5132725;27;20130;-71
2022/10/02 06:48:05;;;;;;;7.18;6.47;;;;;;;14.36;100.00;93412.75;5132766;27;20051;-71
2022/10/02 06:50:51;;;;;;;4.78;3.53;;;;;;;14.36;100.00;93435.19;5133040;27;20468;-72
2022/10/02 06:53:35;;;;;;;;;;;;;;;14.42;100.00;93429.13;5133228;27;20039;-71
2022/10/02 06:56:15;;;;;;;4.70;4.20;;;;;;;14.48;100.00;93420.44;5132674;27;20090;-71
2022/10/02 06:58:55;;;;;;;4.43;3.47;;;;;;;14.61;100.00;93429.75;5132731;27;20043;-71
2022/10/02 07:01:36;;;;;;;4.88;3.47;;;;;;;14.48;100.00;93433.38;5132406;27;20043;-71
2022/10/02 07:04:19;;;;;;;3.63;3.00;;;;;;;14.37;100.00;93432.41;5133211;27;20504;-71
2022/10/02 07:07:01;;;;;;;3.80;2.13;;;;;;;13.63;100.00;93398.31;5132883;27;20123;-71
2022/10/02 07:09:57;;;;;;;3.40;2.42;;;;;;;13.93;100.00;93439.72;5132483;27;20051;-71
2022/10/02 07:12:45;;;;;;;5.57;3.55;;;;;;;13.97;100.00;93440.84;5107889;27;20043;-72
2022/10/02 07:15:31;;;;;;;3.10;2.60;;;;;;;14.01;100.00;93445.34;5132584;27;20478;-71
2022/10/02 07:18:04;;;;;;;;;;;;;;;14.16;100.00;93442.31;5132701;27;20517;-71
2022/10/02 07:20:41;;;;;;;3.30;2.13;;;;;;;13.97;100.00;93457.13;5118001;27;19988;-71
2022/10/02 07:23:29;;;;;;;2.25;1.98;;;;;;;13.89;100.00;93445.34;5132238;27;20051;-71
2022/10/02 07:26:21;;;;;;;3.85;2.08;;;;;;;13.84;100.00;93462.53;5127347;27;20089;-71
2022/10/02 07:28:57;;;;;;;2.20;1.80;;;;;;;13.81;100.00;93456.00;5125411;27;20054;-71
2022/10/02 07:31:32;;;;;;;;;;;;;;;13.90;100.00;93459.03;5132947;27;20035;-71
2022/10/02 07:34:20;;;;;;;2.67;1.80;;;;;;;13.99;100.00;93442.19;5124960;27;20397;-71
2022/10/02 07:36:57;;;;;;;4.50;1.65;;;;;;;14.10;100.00;93445.00;5109153;27;20179;-71
2022/10/02 07:39:39;;;;;;;2.00;1.35;;;;;;;14.29;100.00;93454.19;5128045;27;20380;-71
2022/10/02 07:42:29;;;;;;;2.80;1.70;;;;;;;14.42;100.00;93453.19;5132026;27;20055;-71
2022/10/02 07:45:24;;;;;;;2.45;1.33;;;;;;;14.49;100.00;93460.03;5131650;27;20445;-71
2022/10/02 07:48:39;;;;;;;2.40;1.42;;;;;;;14.64;100.00;93459.53;5124326;27;20043;-71
2022/10/02 07:54:18;;;;;;;1.90;1.25;;;;;;;14.91;98.56;93448.69;5130451;27;20054;-71
2022/10/02 07:56:48;;;;;;;2.22;1.30;;;;;;;15.23;98.79;93464.53;5096368;27;20044;-71
2022/10/02 07:59:17;;;;;;;2.17;1.20;;;;;;;15.23;96.19;93461.94;5130048;27;20043;-71
2022/10/02 08:01:46;;;;;;;2.45;1.50;;;;;;;15.40;97.72;93453.44;5131223;27;20047;-71
2022/10/02 08:04:18;;;;;;;1.92;1.30;;;;;;;15.33;96.05;93461.34;5131383;27;20092;-72
2022/10/02 08:06:47;;;;;;;2.28;1.33;;;;;;;15.01;95.14;93463.63;5131545;27;20047;-71
2022/10/02 08:09:19;;;;;;;2.03;1.20;;;;;;;14.98;97.60;93445.97;5131221;27;20051;-72
2022/10/02 08:11:52;;;;;;;3.17;1.30;;;;;;;15.02;94.31;93460.81;5131201;27;20495;-71
2022/10/02 08:14:25;;;;;;;1.83;1.05;;;;;;;15.26;94.78;93463.28;5131382;27;20043;-71
2022/10/02 08:16:54;;;;;;;3.50;1.45;;;;;;;15.04;92.99;93460.59;5131363;27;20096;-71
2022/10/02 08:19:29;;;;;;;2.75;1.27;;;;;;;15.12;95.76;93457.63;5125660;27;20040;-71
2022/10/02 08:22:01;;;;;;;5.53;1.47;;;;;;;14.98;94.85;93467.44;5123499;27;20043;-71
2022/10/02 08:24:33;;;;;;;3.42;1.58;;;;;;;15.04;96.08;93450.25;5129788;27;20039;-71
2022/10/02 08:27:05;;;;;;;4.63;1.42;;;;;;;15.00;94.09;93457.66;5103297;27;20449;-71
2022/10/02 08:29:40;;;;;;;1.85;1.38;;;;;;;15.08;94.89;93459.88;5130924;27;20449;-71
2022/10/02 08:32:10;;;;;;;2.83;1.30;;;;;;;15.35;95.33;93456.72;5130754;27;20043;-72
2022/10/02 08:34:37;;;;;;;2.95;1.30;;;;;;;15.42;93.94;93448.03;5131099;27;20690;-71
2022/10/02 08:37:31;;;;;;;2.42;1.30;;;;;;;15.43;92.25;93439.25;5130556;27;20039;-71
2022/10/02 08:40:43;;;;;;;3.67;2.40;;;;;;;15.61;96.15;93433.84;5125751;27;20046;-71
2022/10/02 08:43:57;;;;;;;2.30;1.60;;;;;;;15.80;94.67;93425.03;5130742;27;20043;-71
2022/10/02 08:46:57;;;;;;;2.67;1.30;;;;;;;15.90;92.19;93427.78;5067009;28;20149;-71
2022/10/02 08:49:55;;;;;;;2.17;1.50;;;;;;;16.10;93.01;93422.13;5107370;27;20141;-71
2022/10/02 08:53:09;;;;;;;2.00;1.67;;;;;;;16.11;93.07;93420.34;5131003;27;20043;-71
2022/10/02 08:56:05;;;;;;;1.80;1.23;;;;;;;16.01;89.90;93400.25;5067507;27;20099;-71
2022/10/02 08:59:10;;;;;;;2.00;1.30;;;;;;;16.31;92.08;93422.41;5127852;27;20102;-71
2022/10/02 09:02:18;;;;;;;3.22;1.38;;;;;;;16.07;89.89;93420.03;5099300;27;20108;-71
2022/10/02 09:05:29;;;;;;;3.03;1.30;;;;;;;15.89;89.00;93439.94;5130209;27;20078;-71
2022/10/02 09:08:24;;;;;;;2.05;1.50;;;;;;;16.19;88.99;93437.28;5093096;27;20096;-71
2022/10/02 09:11:40;;;;;;;2.03;1.60;;;;;;;16.38;88.35;93437.81;5130566;27;20050;-71
2022/10/02 09:14:31;;;;;;;2.50;1.75;;;;;;;15.89;92.39;93444.34;5130519;27;20043;-70
2022/10/02 09:17:13;;;;;;;3.45;1.60;;;;;;;15.49;93.33;93433.91;5107783;27;20170;-71
2022/10/02 09:19:48;;;;;;;3.47;1.83;;;;;;;15.54;92.62;93435.00;5114767;27;20044;-70
2022/10/02 09:22:38;;;;;;;2.83;2.13;;;;;;;15.91;94.67;93442.31;5124661;27;20096;-71
2022/10/02 09:25:25;;;;;;;3.05;1.70;;;;;;;15.95;87.66;93434.88;5128915;27;20103;-71
2022/10/02 09:28:42;;;;;;;1.92;1.38;;;;;;;15.93;89.44;93435.13;5129673;27;20043;-71
2022/10/02 09:31:40;;;;;;;1.77;1.30;;;;;;;16.30;90.85;93437.16;5130060;28;20047;-71
2022/10/02 09:34:50;;;;;;;2.00;1.40;;;;;;;16.61;86.58;93457.50;5129638;28;20055;-71
2022/10/02 09:37:36;;;;;;;1.70;1.10;;;;;;;16.42;87.83;93446.66;5118856;28;20170;-71
2022/10/02 09:40:25;;;;;;;;;;;;;;;16.25;86.42;93441.53;5104983;28;20507;-71
2022/10/02 09:43:24;;;;;;;2.20;1.45;;;;;;;16.15;86.19;93442.16;5126925;28;19968;-71
2022/10/02 09:46:18;;;;;;;2.53;1.30;;;;;;;15.76;88.60;93442.88;5109527;28;20085;-71
2022/10/02 09:49:17;;;;;;;2.70;1.90;;;;;;;15.50;88.83;93443.25;5108373;28;20047;-71
2022/10/02 09:52:21;;;;;;;2.45;1.52;;;;;;;15.65;89.03;93449.72;5129544;28;20043;-71
2022/10/02 09:55:10;;;;;;;3.30;1.92;;;;;;;15.56;90.32;93449.28;5087441;28;20043;-72
2022/10/02 09:58:08;;;;;;;3.88;1.60;;;;;;;15.40;87.96;93444.88;5129849;28;20099;-71
2022/10/02 10:01:04;;;;;;;3.10;1.70;;;;;;;15.35;94.05;93450.75;5100392;28;20106;-71
2022/10/02 10:04:07;;;;;;;2.55;1.58;;;;;;;15.55;90.80;93447.72;5092660;28;20422;-72
2022/10/02 10:07:09;;;;;;;3.38;1.60;;;;;;;15.52;89.85;93442.22;5094150;28;20044;-71
2022/10/02 10:10:18;;;;;;;2.75;1.50;;;;;;;15.63;91.06;93449.94;5096426;28;20051;-72
2022/10/02 10:13:31;;;;;;;2.33;1.63;;;;;;;15.71;91.78;93442.78;5111135;28;20039;-71
2022/10/02 10:16:40;;;;;;;2.80;1.58;;;;;;;15.41;93.52;93441.28;5101616;27;20039;-71
2022/10/02 10:20:01;;;;;;;4.03;1.60;;;;;;;15.53;94.08;93447.19;5130528;27;20117;-71
2022/10/02 10:23:12;;;;;;;2.55;1.70;;;;;;;15.55;92.99;93463.25;5120684;27;20120;-72
2022/10/02 10:25:57;;;;;;;3.25;1.90;;;;;;;15.26;91.20;93462.50;5131932;27;20053;-71
2022/10/02 10:28:56;;;;;;;2.27;1.50;;;;;;;15.42;93.50;93448.03;5133690;27;20043;-71
2022/10/02 10:31:59;;;;;;;3.72;1.98;;;;;;;15.21;93.26;93451.06;5133294;27;20352;-71
2022/10/02 10:35:28;;;;;;;2.17;1.50;;;;;;;15.13;93.12;93459.19;5133480;27;20111;-71
2022/10/02 10:41:20;;;;;;;1.90;1.30;;;;;;;15.18;89.20;93453.31;5133294;27;20168;-71
2022/10/02 10:44:18;;;;;;;2.88;1.58;;;;;;;15.59;93.38;93448.03;5133546;27;20376;-71
2022/10/02 10:47:17;;;;;;;2.33;1.08;;;;;;;15.86;84.37;93443.03;5133141;27;20043;-71
2022/10/02 10:50:16;;;;;;;1.73;1.00;;;;;;;16.10;84.32;93435.09;5133091;27;20049;-72
2022/10/02 10:53:02;;;;;;;1.52;1.00;;;;;;;16.28;83.80;93446.22;5133117;27;20138;-71
2022/10/02 10:55:58;;;;;;;1.50;0.95;;;;;;;16.38;82.81;93451.53;5110105;27;20046;-72
2022/10/02 10:58:43;;;;;;;1.90;1.10;;;;;;;16.55;82.25;93454.09;5132811;27;20050;-71
2022/10/02 11:01:16;;;;;;;2.17;1.10;;;;;;;16.43;82.76;93437.84;5133383;27;20047;-71
2022/10/02 11:04:09;;;;;;;4.10;1.00;;;;;;;16.87;81.70;93447.44;5133013;27;20043;-72
2022/10/02 11:07:14;;;;;;;1.50;1.02;;;;;;;16.95;78.79;93443.63;5132744;27;20436;-71
2022/10/02 11:10:24;;;;;;;2.38;1.00;;;;;;;16.53;81.01;93448.34;5121169;27;20043;-71
2022/10/02 11:13:10;;;;;;;2.22;0.80;;;;;;;16.38;79.65;93446.34;5086663;27;20051;-71
2022/10/02 11:16:06;;;;;;;;;;;;;;;16.56;81.23;93442.69;5133491;27;20093;-71
2022/10/02 11:18:51;;;;;;;1.63;0.80;;;;;;;16.17;80.16;93437.53;5132533;27;19978;-71
2022/10/02 11:21:35;;;;;;;2.90;1.20;;;;;;;15.88;79.20;93435.03;5106855;27;20100;-72
2022/10/02 11:24:40;;;;;;;2.03;1.08;;;;;;;15.99;81.16;93443.75;5131251;27;20082;-71
2022/10/02 11:27:25;;;;;;;2.55;1.30;;;;;;;16.30;84.17;93434.56;5132618;27;20043;-72
2022/10/02 11:30:18;;;;;;;1.73;1.00;;;;;;;16.49;82.72;93436.09;5132267;27;20047;-71
2022/10/02 11:33:15;;;;;;;2.88;1.20;;;;;;;16.41;78.35;93442.50;5132404;27;20671;-71
2022/10/02 11:36:00;;;;;;;3.15;1.00;;;;;;;16.07;80.80;93450.34;5132339;27;20445;-72
2022/10/02 11:39:08;;;;;;;2.60;1.23;;;;;;;16.05;81.18;93450.56;5106768;27;20043;-71
2022/10/02 11:42:23;;;;;;;1.65;0.90;;;;;;;16.11;83.26;93449.63;5119834;27;20047;-71
2022/10/02 11:45:12;;;;;;;2.67;1.48;;;;;;;16.26;84.67;93443.09;5048259;28;20049;-71
2022/10/02 11:48:00;;;;;;;2.00;1.08;;;;;;;16.35;80.89;93446.03;5131892;27;20535;-71
2022/10/02 11:51:09;;;;;;;1.80;1.13;;;;;;;16.63;85.78;93441.72;5132153;27;20187;-71
2022/10/02 11:54:09;;;;;;;2.25;1.25;;;;;;;16.61;78.69;93447.16;5131801;27;20130;-71
2022/10/02 11:57:01;;;;;;;2.20;0.98;;;;;;;16.10;75.56;93449.88;5131472;27;20047;-71
2022/10/02 11:59:46;;;;;;;2.05;1.05;;;;;;;16.01;76.22;93452.84;5131999;27;20047;-71
2022/10/02 12:02:20;;;;;;;2.03;1.02;;;;;;;15.83;77.20;93456.44;5131352;27;20551;-71
2022/10/02 12:05:02;;;;;;;1.80;1.02;;;;;;;15.83;79.83;93455.66;5131919;27;20043;-71
2022/10/02 12:07:41;;;;;;;1.73;1.10;;;;;;;16.09;81.87;93449.06;5104490;27;20050;-71
2022/10/02 12:10:23;;;;;;;1.83;0.80;;;;;;;16.26;79.70;93448.25;5131087;27;20088;-71
2022/10/02 12:13:03;;;;;;;2.35;0.80;;;;;;;16.49;80.55;93446.47;5131615;27;20047;-71
2022/10/02 12:15:36;;;;;;;1.52;0.90;;;;;;;16.56;79.53;93440.09;5131414;27;20078;-71
2022/10/02 12:18:30;;;;;;;3.03;1.63;;;;;;;16.27;79.02;93465.38;5131488;27;20711;-71
2022/10/02 12:26:58;;;;;;;2.28;1.20;;;;;;;16.26;74.13;93451.63;5131184;27;20054;-71
2022/10/02 12:29:40;;;;;;;2.00;1.20;;;;;;;16.38;77.48;93461.91;5130728;27;20039;-71
2022/10/02 12:32:22;;;;;;;1.75;1.02;;;;;;;16.49;76.61;93459.44;5130836;27;20047;-71
2022/10/02 12:35:00;;;;;;;2.03;1.13;;;;;;;16.72;79.17;93453.25;5130871;27;20046;-71
2022/10/02 12:37:36;;;;;;;2.17;1.33;;;;;;;17.09;78.12;93441.47;5127772;27;20040;-71
2022/10/02 12:40:17;;;;;;;1.90;1.38;;;;;;;17.32;76.53;93445.56;5130883;27;20096;-71
2022/10/02 12:43:18;;;;;;;2.05;1.25;;;;;;;17.33;79.69;93443.78;5130976;27;20043;-71
2022/10/02 12:46:12;;;;;;;2.33;1.25;;;;;;;17.48;76.98;93436.13;5130768;27;20047;-71
2022/10/02 12:48:56;;;;;;;1.70;0.93;;;;;;;17.28;73.96;93454.09;5130632;27;20039;-71